Time;durP1;ratioP1;P1;durP2;ratioP2;P2;SDS_P1;SDS_P2;PMS_P1;PMS_P2;Temp;Humidity;BMP_temperature;BMP_pressure;BME280_temperature;BME280_humidity;BME280_pressure;Samples;Min_cycle;Max_cycle;Signal;HPM_P1;HPM_P2
2024/03/14 00:00:24;;;;;;;29.83;18.17;;;9.80;99.90;;;;;;4918451;29;20233;-83
2024/03/14 00:02:51;;;;;;;30.85;19.23;;;9.80;99.90;;;;;;4919259;29;20200;-83
2024/03/14 00:05:18;;;;;;;36.45;19.45;;;9.70;99.90;;;;;;4918401;29;20241;-84
2024/03/14 00:07:47;;;;;;;31.60;19.63;;;9.80;99.90;;;;;;4934027;29;20218;-83
2024/03/14 00:10:14;;;;;;;30.55;18.73;;;9.80;99.90;;;;;;4919450;29;20629;-83
2024/03/14 00:12:40;;;;;;;30.58;19.13;;;9.80;99.90;;;;;;4919609;29;20327;-83
2024/03/14 00:15:06;;;;;;;32.65;18.98;;;9.80;99.90;;;;;;4917406;29;20749;-83
2024/03/14 00:17:33;;;;;;;34.45;20.27;;;9.80;99.90;;;;;;4933636;29;20532;-84
2024/03/14 00:20:00;;;;;;;32.58;20.15;;;9.80;99.90;;;;;;4918087;29;20631;-83
2024/03/14 00:22:26;;;;;;;34.60;19.73;;;9.80;99.90;;;;;;4933855;29;20238;-83
2024/03/14 00:24:52;;;;;;;35.05;21.10;;;9.80;99.90;;;;;;4919254;29;20167;-84
2024/03/14 00:27:19;;;;;;;33.72;19.55;;;9.80;99.90;;;;;;4919087;29;20217;-83
2024/03/14 00:29:45;;;;;;;35.53;21.02;;;9.80;99.90;;;;;;4933854;29;20269;-83
2024/03/14 00:32:11;;;;;;;36.97;20.38;;;9.80;99.90;;;;;;4918764;29;20729;-83
2024/03/14 00:34:37;;;;;;;35.90;21.17;;;9.90;99.90;;;;;;4933752;29;20273;-83
2024/03/14 00:37:03;;;;;;;32.50;20.52;;;9.90;99.90;;;;;;4918887;29;20266;-84
2024/03/14 00:39:37;;;;;;;35.47;20.13;;;9.90;99.90;;;;;;5358524;23;20245;-89
2024/03/14 00:42:03;;;;;;;33.42;20.25;;;9.90;99.90;;;;;;4918157;29;20178;-89
2024/03/14 00:44:30;;;;;;;36.13;20.08;;;9.90;99.90;;;;;;4918078;29;20652;-89
2024/03/14 00:46:56;;;;;;;33.17;20.95;;;9.90;99.90;;;;;;4917875;29;20660;-90
2024/03/14 00:49:23;;;;;;;31.30;19.67;;;9.90;99.90;;;;;;4933807;29;20273;-90
2024/03/14 00:51:56;;;;;;;33.50;19.65;;;9.90;99.90;;;;;;4934114;29;20175;-90
2024/03/14 00:54:36;;;;;;;37.17;20.52;;;9.90;99.90;;;;;;4933894;29;20222;-90
2024/03/14 00:57:12;;;;;;;31.08;20.30;;;9.90;99.90;;;;;;4936276;29;20289;-96
2024/03/14 00:59:39;;;;;;;37.03;21.23;;;9.90;99.90;;;;;;4936780;29;20554;-96
2024/03/14 01:02:11;;;;;;;34.00;20.95;;;9.90;99.90;;;;;;4937776;29;20311;-95
2024/03/14 01:04:49;;;;;;;31.17;19.73;;;9.90;99.90;;;;;;4936901;29;20261;-96
2024/03/14 01:07:15;;;;;;;37.35;21.65;;;9.90;99.90;;;;;;4937462;29;20202;-96
2024/03/14 01:09:53;;;;;;;32.83;19.85;;;9.90;99.90;;;;;;4936764;29;20233;-96
2024/03/14 01:12:24;;;;;;;34.03;21.08;;;9.90;99.90;;;;;;4937111;29;20181;-96
2024/03/14 01:14:51;;;;;;;32.13;19.95;;;9.90;99.90;;;;;;4936906;29;20266;-96
2024/03/14 01:17:23;;;;;;;36.30;21.17;;;9.90;99.90;;;;;;4935354;29;20182;-96
2024/03/14 01:19:50;;;;;;;34.97;20.13;;;9.90;99.90;;;;;;4934919;29;20265;-96
2024/03/14 01:22:17;;;;;;;31.60;19.80;;;9.80;99.90;;;;;;4935438;29;20239;-96
2024/03/14 01:24:43;;;;;;;31.95;19.73;;;9.90;99.90;;;;;;4936561;29;20178;-96
2024/03/14 01:27:30;;;;;;;31.58;19.42;;;9.90;99.90;;;;;;4937510;29;20202;-96
2024/03/14 01:30:03;;;;;;;36.28;21.40;;;9.90;99.90;;;;;;4936108;29;20637;-96
2024/03/14 01:32:49;;;;;;;34.50;20.92;;;9.90;99.90;;;;;;4934910;29;20194;-93
2024/03/14 01:35:24;;;;;;;37.92;21.42;;;9.90;99.90;;;;;;4917194;29;20206;-93
2024/03/14 01:37:54;;;;;;;34.53;20.25;;;9.80;99.90;;;;;;4934534;29;20241;-93
2024/03/14 01:40:31;;;;;;;32.72;21.10;;;9.90;99.90;;;;;;4932979;29;20230;-93
2024/03/14 01:43:03;;;;;;;35.33;20.55;;;9.80;99.90;;;;;;4933133;29;20170;-93
2024/03/14 01:45:30;;;;;;;34.13;21.92;;;9.80;99.90;;;;;;4933347;29;20198;-94
2024/03/14 01:47:56;;;;;;;34.40;21.70;;;9.90;99.90;;;;;;4932722;29;20195;-93
2024/03/14 01:50:54;;;;;;;34.28;20.17;;;9.80;99.90;;;;;;4932325;29;20177;-92
2024/03/14 01:53:36;;;;;;;32.17;20.20;;;9.80;99.90;;;;;;4932837;29;20231;-92
2024/03/14 01:56:57;;;;;;;33.47;20.55;;;9.80;99.90;;;;;;4932781;29;20205;-92
2024/03/14 01:59:27;;;;;;;33.38;20.42;;;9.80;99.90;;;;;;4933214;29;20166;-92
2024/03/14 02:02:10;;;;;;;35.30;21.55;;;9.80;99.90;;;;;;4933159;29;20170;-92
2024/03/14 02:04:52;;;;;;;32.38;21.08;;;9.80;99.90;;;;;;4933169;29;20230;-93
2024/03/14 02:07:26;;;;;;;33.30;19.77;;;9.80;99.90;;;;;;4933441;29;20199;-92
2024/03/14 02:09:55;;;;;;;35.65;20.83;;;9.80;99.90;;;;;;4933308;29;20167;-93
2024/03/14 02:12:23;;;;;;;36.78;21.88;;;9.80;99.90;;;;;;4933596;29;20764;-92
2024/03/14 02:14:49;;;;;;;34.88;22.35;;;9.80;99.90;;;;;;4933559;29;20190;-92
2024/03/14 02:17:15;;;;;;;35.85;22.23;;;9.80;99.90;;;;;;4932907;29;20259;-92
2024/03/14 02:19:41;;;;;;;36.25;21.35;;;9.80;99.90;;;;;;4933069;29;20265;-93
2024/03/14 02:22:16;;;;;;;37.40;23.15;;;9.80;99.90;;;;;;4933573;29;20524;-93
2024/03/14 02:24:45;;;;;;;35.00;22.35;;;9.80;99.90;;;;;;4934555;29;20177;-96
2024/03/14 02:27:13;;;;;;;34.22;21.58;;;9.80;99.90;;;;;;4934707;29;20217;-96
2024/03/14 02:29:47;;;;;;;34.55;22.42;;;9.80;99.90;;;;;;4934115;29;20182;-96
2024/03/14 02:32:14;;;;;;;37.67;22.02;;;9.80;99.90;;;;;;4934745;29;20166;-94
2024/03/14 02:34:47;;;;;;;39.45;22.67;;;9.80;99.90;;;;;;4935049;29;20543;-96
2024/03/14 02:37:13;;;;;;;37.25;22.40;;;9.80;99.90;;;;;;4933695;29;20199;-96
2024/03/14 02:39:55;;;;;;;38.08;23.45;;;9.70;99.90;;;;;;4933845;29;20563;-96
2024/03/14 02:42:22;;;;;;;39.42;21.92;;;9.80;99.90;;;;;;4933800;29;20189;-96
2024/03/14 02:44:51;;;;;;;34.15;21.70;;;9.80;99.90;;;;;;4933904;29;20185;-96
2024/03/14 02:47:23;;;;;;;31.92;21.08;;;9.80;99.90;;;;;;4934142;29;20224;-95
2024/03/14 02:49:49;;;;;;;32.72;21.27;;;9.80;99.90;;;;;;4935075;29;20642;-96
2024/03/14 02:52:17;;;;;;;32.88;20.75;;;9.80;99.90;;;;;;4933324;29;20179;-95
2024/03/14 02:54:51;;;;;;;34.10;21.33;;;9.80;99.90;;;;;;4933400;29;20175;-96
2024/03/14 02:57:18;;;;;;;31.13;19.63;;;9.80;99.90;;;;;;4933509;29;20645;-96
2024/03/14 02:59:44;;;;;;;32.28;21.27;;;9.80;99.90;;;;;;4933397;29;20182;-96
2024/03/14 03:02:15;;;;;;;35.13;21.48;;;9.80;99.90;;;;;;4935939;29;20542;-96
2024/03/14 03:04:41;;;;;;;35.10;21.67;;;9.80;99.90;;;;;;4936682;29;20182;-96
2024/03/14 03:07:09;;;;;;;33.58;21.00;;;9.80;99.90;;;;;;4936251;29;20207;-96
2024/03/14 03:09:38;;;;;;;33.22;19.95;;;9.80;99.90;;;;;;4936966;29;20579;-95
2024/03/14 03:12:15;;;;;;;32.33;20.95;;;9.70;99.90;;;;;;4936831;29;20183;-95
2024/03/14 03:14:53;;;;;;;34.22;20.25;;;9.70;99.90;;;;;;4936157;29;20178;-96
2024/03/14 03:17:19;;;;;;;33.45;20.67;;;9.70;99.90;;;;;;4935952;29;20178;-96
2024/03/14 03:19:58;;;;;;;33.17;20.05;;;9.80;99.90;;;;;;4936103;29;20548;-96
2024/03/14 03:23:01;;;;;;;32.30;20.05;;;9.80;99.90;;;;;;4935554;29;20183;-95
2024/03/14 03:25:20;;;;;;;31.83;20.42;;;9.80;99.90;;;;;;4920499;29;20194;-96
2024/03/14 03:27:47;;;;;;;32.92;21.27;;;9.80;99.90;;;;;;4935228;29;20744;-95
2024/03/14 03:30:15;;;;;;;31.75;20.63;;;9.70;99.90;;;;;;4936022;29;20249;-96
2024/03/14 03:33:12;;;;;;;34.45;21.42;;;9.80;99.90;;;;;;4935403;29;20261;-96
2024/03/14 03:35:40;;;;;;;34.92;19.92;;;9.80;99.90;;;;;;4935577;29;20202;-96
2024/03/14 03:38:09;;;;;;;29.90;19.23;;;9.80;99.90;;;;;;4935115;29;20178;-90
2024/03/14 03:40:51;;;;;;;31.25;19.65;;;9.80;99.90;;;;;;4935062;29;20242;-89
2024/03/14 03:43:17;;;;;;;33.97;20.65;;;9.80;99.90;;;;;;4935140;29;20661;-89
2024/03/14 03:45:44;;;;;;;29.15;19.25;;;9.80;99.90;;;;;;4934707;29;20206;-89
2024/03/14 03:48:12;;;;;;;31.42;19.70;;;9.80;99.90;;;;;;4934968;29;20210;-89
2024/03/14 03:50:39;;;;;;;30.30;19.13;;;9.80;99.90;;;;;;4935092;29;20177;-89
2024/03/14 03:53:07;;;;;;;27.30;17.60;;;9.80;99.90;;;;;;4934960;29;20163;-89
2024/03/14 03:55:37;;;;;;;28.58;19.30;;;9.80;99.90;;;;;;4934654;29;20198;-89
2024/03/14 03:58:14;;;;;;;27.95;18.85;;;9.80;99.90;;;;;;4934965;29;20604;-89
2024/03/14 04:00:44;;;;;;;29.50;17.98;;;9.80;99.90;;;;;;4934795;29;20179;-89
2024/03/14 04:03:28;;;;;;;29.58;18.52;;;9.80;99.90;;;;;;4935016;29;20175;-89
2024/03/14 04:05:55;;;;;;;28.48;18.38;;;9.80;99.90;;;;;;4934684;29;20281;-89
2024/03/14 04:08:22;;;;;;;27.20;18.33;;;9.80;99.90;;;;;;4934652;29;20206;-88
2024/03/14 04:10:49;;;;;;;28.98;19.10;;;9.80;99.90;;;;;;4934849;29;20166;-89
2024/03/14 04:13:22;;;;;;;31.25;19.40;;;9.90;99.90;;;;;;4933968;29;20163;-88
2024/03/14 04:15:48;;;;;;;27.92;17.92;;;9.90;99.90;;;;;;4935043;29;20282;-89
2024/03/14 04:18:15;;;;;;;28.17;18.23;;;9.90;99.90;;;;;;4934565;29;20537;-89
2024/03/14 04:20:42;;;;;;;30.52;18.38;;;9.80;99.90;;;;;;4934789;29;20234;-89
2024/03/14 04:23:10;;;;;;;27.92;17.23;;;9.90;99.90;;;;;;4934671;29;20234;-96
2024/03/14 04:25:36;;;;;;;26.73;16.60;;;9.80;99.90;;;;;;4934994;29;20213;-95
2024/03/14 04:28:02;;;;;;;23.80;16.20;;;9.80;99.90;;;;;;4934441;29;20207;-95
2024/03/14 04:30:28;;;;;;;28.90;17.38;;;9.80;99.90;;;;;;4934821;29;20175;-95
2024/03/14 04:32:54;;;;;;;25.52;17.30;;;9.80;99.90;;;;;;4934826;29;20262;-95
2024/03/14 04:35:31;;;;;;;27.83;16.98;;;9.80;99.90;;;;;;4934141;29;20723;-96
2024/03/14 04:37:57;;;;;;;25.98;17.23;;;9.90;99.90;;;;;;4935028;29;20175;-96
2024/03/14 04:40:22;;;;;;;27.10;17.02;;;9.90;99.90;;;;;;4934252;29;20691;-93
2024/03/14 04:43:13;;;;;;;27.75;17.27;;;9.90;99.90;;;;;;4934340;29;20183;-96
2024/03/14 04:45:55;;;;;;;26.25;17.15;;;9.90;99.90;;;;;;4934029;29;20607;-93
2024/03/14 04:48:29;;;;;;;26.90;17.58;;;10.00;99.90;;;;;;4934470;29;20309;-93
2024/03/14 04:50:55;;;;;;;27.83;17.60;;;10.00;99.90;;;;;;4934108;29;20202;-93
2024/03/14 04:53:21;;;;;;;27.80;16.73;;;10.00;99.90;;;;;;4934538;29;20178;-93
2024/03/14 04:55:47;;;;;;;26.13;16.60;;;10.00;99.90;;;;;;4934079;29;20250;-92
2024/03/14 04:58:26;;;;;;;29.42;15.85;;;10.00;99.90;;;;;;4933816;29;20175;-93
2024/03/14 05:00:57;;;;;;;24.70;16.30;;;10.00;99.90;;;;;;4933900;29;20235;-93
2024/03/14 05:03:28;;;;;;;28.50;17.23;;;10.00;99.90;;;;;;4933739;29;20261;-93
2024/03/14 05:05:58;;;;;;;23.27;15.73;;;10.00;99.90;;;;;;4933600;29;20205;-94
2024/03/14 05:08:34;;;;;;;26.80;16.77;;;10.00;99.90;;;;;;4933438;29;20293;-92
2024/03/14 05:11:11;;;;;;;28.00;17.42;;;10.00;99.90;;;;;;4933538;29;20174;-93
2024/03/14 05:13:39;;;;;;;26.80;16.75;;;10.00;99.90;;;;;;4933707;29;20170;-93
2024/03/14 05:16:09;;;;;;;26.35;16.58;;;9.90;99.90;;;;;;4933484;29;20195;-92
2024/03/14 05:18:35;;;;;;;25.33;16.10;;;9.90;99.90;;;;;;4933681;29;20205;-93
2024/03/14 05:21:03;;;;;;;24.15;16.05;;;10.00;99.90;;;;;;4933887;29;20175;-96
2024/03/14 05:23:31;;;;;;;25.27;16.63;;;9.90;99.90;;;;;;4933203;29;20271;-96
2024/03/14 05:26:02;;;;;;;26.20;16.13;;;9.90;99.90;;;;;;4932545;29;20206;-96
2024/03/14 05:28:36;;;;;;;25.45;15.57;;;9.90;99.90;;;;;;4933611;29;20210;-96
2024/03/14 05:31:05;;;;;;;25.77;16.95;;;10.00;99.90;;;;;;4933913;29;20178;-96
2024/03/14 05:33:51;;;;;;;25.63;16.00;;;10.00;99.90;;;;;;4933425;29;20617;-96
2024/03/14 05:36:25;;;;;;;26.40;16.40;;;9.90;99.90;;;;;;4933660;29;20206;-95
2024/03/14 05:39:29;;;;;;;24.25;15.95;;;9.90;99.90;;;;;;4931427;29;20230;-96
2024/03/14 05:41:55;;;;;;;25.33;16.23;;;10.00;99.90;;;;;;4924408;29;20195;-96
2024/03/14 05:44:21;;;;;;;24.65;16.77;;;10.00;99.90;;;;;;4952224;29;20189;-95
2024/03/14 05:46:49;;;;;;;28.30;16.80;;;10.00;99.90;;;;;;4952886;29;20233;-96
2024/03/14 05:49:22;;;;;;;28.75;17.35;;;10.00;99.90;;;;;;4953107;29;20166;-96
2024/03/14 05:51:49;;;;;;;26.00;16.35;;;10.00;99.90;;;;;;4952669;29;20177;-95
2024/03/14 05:54:24;;;;;;;26.35;16.70;;;10.00;99.90;;;;;;4952706;29;20201;-96
2024/03/14 05:57:01;;;;;;;27.25;16.23;;;10.00;99.90;;;;;;4952090;29;20197;-95
2024/03/14 05:59:27;;;;;;;26.13;16.77;;;10.00;99.90;;;;;;4952468;29;20605;-95
2024/03/14 06:01:53;;;;;;;27.20;16.27;;;10.00;99.90;;;;;;4952174;29;20639;-95
2024/03/14 06:04:21;;;;;;;29.15;17.17;;;10.00;99.90;;;;;;4952167;29;20632;-95
2024/03/14 06:07:02;;;;;;;28.65;16.73;;;10.00;99.90;;;;;;4952736;29;20202;-96
2024/03/14 06:09:42;;;;;;;30.65;17.60;;;10.10;99.90;;;;;;4952246;29;20181;-96
2024/03/14 06:12:08;;;;;;;25.60;15.93;;;10.10;99.90;;;;;;4951989;29;20173;-95
2024/03/14 06:14:35;;;;;;;28.27;16.88;;;10.10;99.90;;;;;;4952303;29;20170;-96
2024/03/14 06:17:03;;;;;;;28.13;16.85;;;10.10;99.90;;;;;;4951944;29;20237;-94
2024/03/14 06:19:29;;;;;;;30.02;17.15;;;10.10;99.90;;;;;;4951940;29;20174;-96
2024/03/14 06:21:56;;;;;;;28.65;17.05;;;10.20;99.90;;;;;;4952145;29;20237;-95
2024/03/14 06:24:23;;;;;;;28.80;16.77;;;10.20;99.90;;;;;;4951900;29;20182;-96
2024/03/14 06:26:48;;;;;;;30.05;17.13;;;10.20;99.90;;;;;;4951788;29;20202;-95
2024/03/14 06:29:14;;;;;;;27.63;16.08;;;10.10;99.90;;;;;;4951859;29;20182;-93
2024/03/14 06:31:53;;;;;;;28.17;16.63;;;10.20;99.90;;;;;;4951639;29;20230;-94
2024/03/14 06:34:29;;;;;;;28.13;16.48;;;10.10;99.90;;;;;;4951735;29;20174;-93
2024/03/14 06:36:55;;;;;;;25.67;16.35;;;10.10;99.90;;;;;;4954124;28;20201;-93
2024/03/14 06:39:25;;;;;;;28.52;17.00;;;10.20;99.90;;;;;;4956076;29;20170;-93
2024/03/14 06:41:52;;;;;;;28.38;16.70;;;10.20;99.90;;;;;;4967989;28;20233;-93
2024/03/14 06:44:18;;;;;;;26.20;16.65;;;10.30;99.90;;;;;;4974846;28;20174;-93
2024/03/14 06:46:49;;;;;;;26.25;16.10;;;10.40;99.90;;;;;;4974521;28;20193;-95
2024/03/14 06:49:15;;;;;;;28.17;16.95;;;10.40;99.90;;;;;;4974591;28;20173;-95
2024/03/14 06:51:42;;;;;;;28.20;16.48;;;10.50;99.90;;;;;;4974569;28;20273;-91
2024/03/14 06:54:13;;;;;;;26.02;16.33;;;10.70;99.90;;;;;;4974099;28;20183;-91
2024/03/14 06:56:39;;;;;;;27.63;16.77;;;10.80;99.90;;;;;;4974321;28;20197;-96
2024/03/14 06:59:34;;;;;;;26.67;16.48;;;11.00;99.90;;;;;;4974817;28;20181;-94
2024/03/14 07:02:00;;;;;;;23.90;15.30;;;11.10;99.90;;;;;;4958246;29;20192;-93
2024/03/14 07:04:27;;;;;;;28.10;16.83;;;11.10;99.90;;;;;;4974376;28;20173;-93
2024/03/14 07:06:53;;;;;;;22.25;15.43;;;11.20;99.90;;;;;;4974038;28;20201;-92
2024/03/14 07:09:19;;;;;;;27.38;16.48;;;11.20;99.90;;;;;;4973882;28;20173;-93
2024/03/14 07:11:57;;;;;;;23.45;15.30;;;11.30;99.90;;;;;;4973771;28;20580;-93
2024/03/14 07:14:29;;;;;;;26.73;16.92;;;11.30;99.90;;;;;;4974079;28;20184;-92
2024/03/14 07:16:55;;;;;;;25.25;16.25;;;11.40;99.90;;;;;;4974029;28;20205;-92
2024/03/14 07:19:21;;;;;;;22.58;15.68;;;11.40;99.90;;;;;;4974086;28;20237;-93
2024/03/14 07:21:56;;;;;;;26.23;15.85;;;11.40;99.90;;;;;;4974411;28;20185;-93
2024/03/14 07:24:37;;;;;;;24.13;15.48;;;11.30;99.90;;;;;;4974028;28;20224;-87
2024/03/14 07:27:03;;;;;;;23.00;15.90;;;11.30;99.90;;;;;;4973796;28;20724;-86
2024/03/14 07:29:31;;;;;;;27.77;16.60;;;11.20;99.90;;;;;;4973892;28;20213;-86
2024/03/14 07:31:57;;;;;;;23.38;15.23;;;11.20;99.90;;;;;;4973776;28;20248;-87
2024/03/14 07:34:25;;;;;;;23.48;15.10;;;11.20;99.90;;;;;;4973763;28;20627;-87
2024/03/14 07:36:51;;;;;;;22.10;15.38;;;11.10;99.90;;;;;;4973510;28;20193;-87
2024/03/14 07:39:29;;;;;;;23.77;14.95;;;11.10;99.90;;;;;;4973070;28;20181;-89
2024/03/14 07:41:58;;;;;;;22.40;14.95;;;11.10;99.90;;;;;;4973965;28;20195;-90
2024/03/14 07:44:24;;;;;;;23.25;15.88;;;11.10;99.90;;;;;;4972287;28;20262;-92
2024/03/14 07:46:53;;;;;;;26.45;16.67;;;11.10;99.90;;;;;;4973805;28;20201;-92
2024/03/14 07:49:19;;;;;;;22.15;14.98;;;11.10;99.90;;;;;;4957446;28;20661;-92
2024/03/14 07:51:55;;;;;;;23.55;14.90;;;11.10;99.90;;;;;;4973841;28;20209;-92
2024/03/14 07:54:22;;;;;;;21.17;14.88;;;11.00;99.90;;;;;;4973585;28;20165;-93
2024/03/14 07:56:51;;;;;;;19.95;14.27;;;11.00;99.90;;;;;;4988529;28;20295;-96
2024/03/14 07:59:17;;;;;;;21.25;14.20;;;11.00;99.90;;;;;;4997274;28;20158;-96
2024/03/14 08:01:45;;;;;;;21.08;14.50;;;11.10;99.90;;;;;;4996726;28;20258;-94
2024/03/14 08:04:13;;;;;;;22.63;15.25;;;11.10;99.90;;;;;;4995296;28;20167;-96
2024/03/14 08:06:43;;;;;;;21.15;14.38;;;11.20;99.90;;;;;;4996804;28;20186;-96
2024/03/14 08:09:12;;;;;;;22.25;14.40;;;11.20;99.90;;;;;;4995851;28;20177;-96
2024/03/14 08:11:40;;;;;;;23.15;15.27;;;11.30;99.90;;;;;;4996598;28;20177;-96
2024/03/14 08:14:07;;;;;;;20.70;14.98;;;11.30;99.90;;;;;;4996533;28;20158;-95
2024/03/14 08:16:33;;;;;;;22.92;14.13;;;11.20;99.90;;;;;;4996897;28;20201;-94
2024/03/14 08:19:01;;;;;;;23.10;14.60;;;11.30;99.90;;;;;;4996813;28;20173;-95
2024/03/14 08:21:32;;;;;;;21.15;14.60;;;11.30;99.90;;;;;;4995870;28;20177;-96
2024/03/14 08:24:09;;;;;;;20.17;14.20;;;11.30;99.90;;;;;;4997308;28;20174;-95
2024/03/14 08:26:37;;;;;;;21.67;14.73;;;11.30;99.90;;;;;;4996674;28;20197;-96
2024/03/14 08:29:03;;;;;;;20.63;14.88;;;11.30;99.90;;;;;;4995941;28;20224;-96
2024/03/14 08:31:29;;;;;;;22.58;15.05;;;11.40;99.90;;;;;;4992404;28;20168;-96
2024/03/14 08:33:56;;;;;;;21.42;15.05;;;11.40;99.90;;;;;;4993965;28;20166;-96
2024/03/14 08:36:22;;;;;;;19.38;13.85;;;11.50;99.90;;;;;;4994475;28;20189;-96
2024/03/14 08:38:48;;;;;;;21.55;14.20;;;11.60;99.90;;;;;;4993110;28;20178;-96
2024/03/14 08:41:14;;;;;;;21.80;13.63;;;11.70;99.90;;;;;;4989088;28;20233;-96
2024/03/14 08:43:42;;;;;;;20.67;14.18;;;11.90;99.90;;;;;;4990531;28;20177;-96
2024/03/14 08:46:19;;;;;;;20.27;13.68;;;11.90;99.90;;;;;;4989976;28;20256;-93
2024/03/14 08:48:51;;;;;;;18.35;13.55;;;12.00;99.90;;;;;;4972357;28;20260;-92
2024/03/14 08:51:23;;;;;;;17.15;13.18;;;12.10;99.90;;;;;;4972149;28;20594;-92
2024/03/14 08:56:43;;;;;;;18.25;12.30;;;12.20;99.90;;;;;;4957385;28;20197;-93
2024/03/14 08:59:10;;;;;;;15.95;12.75;;;12.30;99.90;;;;;;4972118;28;20260;-93
2024/03/14 09:01:37;;;;;;;17.67;12.80;;;12.30;99.90;;;;;;4972324;28;20533;-92
2024/03/14 09:04:03;;;;;;;15.82;12.27;;;12.40;99.90;;;;;;4972030;28;20188;-92
2024/03/14 09:06:34;;;;;;;15.70;12.40;;;12.50;99.90;;;;;;4971571;28;20265;-92
2024/03/14 09:09:07;;;;;;;17.50;12.05;;;12.60;99.90;;;;;;4971329;28;20193;-93
2024/03/14 09:11:33;;;;;;;18.35;12.68;;;12.60;99.90;;;;;;4972163;28;20173;-92
2024/03/14 09:14:14;;;;;;;15.02;12.43;;;12.60;99.90;;;;;;4971445;28;20228;-92
2024/03/14 09:16:56;;;;;;;16.15;11.70;;;12.60;99.90;;;;;;4971451;28;20239;-92
2024/03/14 09:19:39;;;;;;;14.15;11.10;;;12.70;99.90;;;;;;4971579;28;20213;-93
2024/03/14 09:22:18;;;;;;;19.38;11.43;;;12.80;99.90;;;;;;4971377;28;20173;-92
2024/03/14 09:24:52;;;;;;;15.80;11.63;;;12.80;99.90;;;;;;4971481;28;20528;-94
2024/03/14 09:27:23;;;;;;;20.58;12.23;;;12.80;99.90;;;;;;4971340;28;20188;-93
2024/03/14 09:29:54;;;;;;;15.80;11.10;;;12.80;99.90;;;;;;4971420;28;20659;-93
2024/03/14 09:32:25;;;;;;;14.15;10.98;;;12.90;99.90;;;;;;4971375;28;20177;-93
2024/03/14 09:34:51;;;;;;;16.10;11.30;;;12.90;99.90;;;;;;4987468;28;20185;-95
2024/03/14 09:37:25;;;;;;;14.73;10.90;;;13.00;99.90;;;;;;4989771;28;20232;-95
2024/03/14 09:39:51;;;;;;;14.30;9.70;;;13.10;99.90;;;;;;4983433;28;20241;-95
2024/03/14 09:42:17;;;;;;;15.73;10.73;;;13.00;99.90;;;;;;4987788;28;20193;-95
2024/03/14 09:44:44;;;;;;;15.05;9.77;;;13.00;99.90;;;;;;4989236;28;20172;-96
2024/03/14 09:50:31;;;;;;;12.50;9.75;;;13.10;99.90;;;;;;4956337;29;20204;-89
2024/03/14 09:52:58;;;;;;;12.07;8.77;;;13.30;99.90;;;;;;4971023;28;20204;-90
2024/03/14 09:55:32;;;;;;;17.10;9.20;;;13.40;99.90;;;;;;4971094;28;20193;-89
2024/03/14 09:58:04;;;;;;;12.98;8.60;;;13.50;99.90;;;;;;4971137;28;20197;-89
2024/03/14 10:00:33;;;;;;;11.50;8.70;;;13.60;99.90;;;;;;4970864;28;20174;-89
2024/03/14 10:03:05;;;;;;;11.27;8.63;;;13.60;99.90;;;;;;4971038;28;20174;-95
2024/03/14 10:05:38;;;;;;;11.82;8.85;;;13.60;99.90;;;;;;4971189;28;20199;-96
2024/03/14 10:08:21;;;;;;;13.55;8.15;;;13.80;99.90;;;;;;4971230;28;20176;-96
2024/03/14 10:10:47;;;;;;;9.80;6.95;;;13.90;99.90;;;;;;4971099;28;20309;-96
2024/03/14 10:13:26;;;;;;;10.75;7.00;;;13.90;99.90;;;;;;4971919;28;20228;-96
2024/03/14 10:15:54;;;;;;;8.52;6.30;;;13.90;99.90;;;;;;4971617;28;20423;-96
2024/03/14 10:18:20;;;;;;;7.68;5.47;;;13.90;99.90;;;;;;4971646;28;20561;-96
2024/03/14 10:20:47;;;;;;;10.48;5.78;;;13.90;99.90;;;;;;4971910;28;20213;-96
2024/03/14 10:23:18;;;;;;;6.47;5.22;;;14.00;99.90;;;;;;4971747;28;20502;-96
2024/03/14 10:25:50;;;;;;;7.43;5.75;;;13.90;99.90;;;;;;4971375;28;20275;-96
2024/03/14 10:28:18;;;;;;;8.35;5.00;;;14.00;99.90;;;;;;4971104;28;20205;-95
2024/03/14 10:30:57;;;;;;;7.93;4.80;;;14.00;99.90;;;;;;4971209;28;20177;-96
2024/03/14 10:33:26;;;;;;;6.20;4.50;;;14.20;99.90;;;;;;4983081;28;20177;-96
2024/03/14 10:35:58;;;;;;;7.47;4.75;;;14.20;99.90;;;;;;4994200;28;20209;-96
2024/03/14 10:38:26;;;;;;;5.70;4.43;;;14.10;99.90;;;;;;4993874;28;20197;-96
2024/03/14 10:41:09;;;;;;;6.07;4.15;;;14.10;99.90;;;;;;4993082;28;20236;-95
2024/03/14 10:43:39;;;;;;;3.33;2.22;;;14.00;99.90;;;;;;4990994;28;20177;-96
2024/03/14 10:46:12;;;;;;;4.55;1.92;;;14.00;99.90;;;;;;4991693;28;20201;-96
2024/03/14 10:48:44;;;;;;;3.08;1.83;;;14.00;99.90;;;;;;4994565;28;20226;-96
2024/03/14 10:51:15;;;;;;;3.90;1.80;;;14.10;99.90;;;;;;4988438;28;20177;-95
2024/03/14 10:53:41;;;;;;;3.33;2.30;;;14.30;99.90;;;;;;4985853;28;20213;-95
2024/03/14 10:56:27;;;;;;;3.63;2.20;;;14.40;99.90;;;;;;4970967;28;20229;-96
2024/03/14 10:58:56;;;;;;;3.97;2.60;;;14.40;99.90;;;;;;4970697;28;20209;-94
2024/03/14 11:01:23;;;;;;;4.63;2.92;;;14.50;99.90;;;;;;4970682;28;20161;-95
2024/03/14 11:04:11;;;;;;;4.25;3.25;;;14.50;99.90;;;;;;4970620;28;20173;-94
2024/03/14 11:06:51;;;;;;;3.38;2.50;;;14.60;99.90;;;;;;4970456;28;20268;-93
2024/03/14 11:09:29;;;;;;;3.40;2.42;;;14.50;99.90;;;;;;4970427;28;20170;-93
2024/03/14 11:12:03;;;;;;;1.80;1.60;;;14.60;99.90;;;;;;4970468;28;20165;-94
2024/03/14 11:14:40;;;;;;;3.95;1.70;;;14.70;99.90;;;;;;4955474;28;20165;-93
2024/03/14 11:17:10;;;;;;;1.88;1.40;;;14.80;99.90;;;;;;4970344;28;20200;-93
2024/03/14 11:20:09;;;;;;;2.70;2.00;;;14.70;99.90;;;;;;4970545;28;20222;-94
2024/03/14 11:22:49;;;;;;;2.42;1.17;;;14.70;99.90;;;;;;4955215;28;20181;-94
2024/03/14 11:25:20;;;;;;;4.60;1.75;;;14.90;99.90;;;;;;4973944;28;20195;-94
2024/03/14 11:27:48;;;;;;;3.90;1.10;;;15.10;99.90;;;;;;4973912;28;20870;-94
2024/03/14 11:30:16;;;;;;;1.83;1.10;;;15.40;99.90;;;;;;4974020;28;20174;-95
2024/03/14 11:33:06;;;;;;;2.88;1.50;;;15.40;99.90;;;;;;4974185;28;20170;-96
2024/03/14 11:35:38;;;;;;;3.72;1.55;;;15.20;99.90;;;;;;4974139;28;20208;-96
2024/03/14 11:38:32;;;;;;;2.70;1.63;;;15.20;99.90;;;;;;4973767;28;20193;-95
2024/03/14 11:41:06;;;;;;;4.55;2.50;;;15.30;99.90;;;;;;4971261;28;20247;-95
2024/03/14 11:43:36;;;;;;;3.67;2.45;;;15.20;99.90;;;;;;4973679;28;20209;-95
2024/03/14 11:46:08;;;;;;;3.50;2.28;;;15.30;99.90;;;;;;4973791;28;20193;-96
2024/03/14 11:48:48;;;;;;;4.40;3.58;;;15.50;99.90;;;;;;4973602;28;20214;-94
2024/03/14 11:51:21;;;;;;;5.80;4.05;;;15.70;99.90;;;;;;4973567;28;20204;-95
2024/03/14 11:53:52;;;;;;;4.80;4.28;;;15.70;99.90;;;;;;4973948;28;20184;-96
2024/03/14 11:56:19;;;;;;;5.45;3.50;;;15.90;99.90;;;;;;4984327;28;20201;-96
2024/03/14 11:58:46;;;;;;;4.88;3.78;;;15.80;99.90;;;;;;4991184;28;20216;-96
2024/03/14 12:01:15;;;;;;;5.32;3.35;;;15.60;99.90;;;;;;4982999;28;20247;-93
2024/03/14 12:03:41;;;;;;;6.13;3.83;;;15.50;99.90;;;;;;4973309;28;20181;-93
2024/03/14 12:06:17;;;;;;;4.40;3.47;;;15.40;99.90;;;;;;4973339;28;20205;-92
2024/03/14 12:08:52;;;;;;;5.10;4.28;;;15.60;99.90;;;;;;4973121;28;20638;-92
2024/03/14 12:11:34;;;;;;;5.63;4.38;;;15.60;99.90;;;;;;4973310;28;20577;-95
2024/03/14 12:14:03;;;;;;;5.85;4.18;;;15.50;99.90;;;;;;4957292;28;20185;-94
2024/03/14 12:16:36;;;;;;;5.40;4.68;;;15.50;99.90;;;;;;4973301;28;20208;-96
2024/03/14 12:19:16;;;;;;;5.50;4.90;;;15.50;99.90;;;;;;4957626;29;20197;-96
2024/03/14 12:27:40;;;;;;;5.57;4.18;;;15.60;99.90;;;;;;4982933;23;20300;-90
2024/03/14 12:30:07;;;;;;;5.38;4.20;;;15.70;99.90;;;;;;4978127;28;20197;-89
2024/03/14 12:32:33;;;;;;;8.82;4.90;;;15.80;99.90;;;;;;4960735;28;20235;-88
2024/03/14 12:35:01;;;;;;;6.38;4.78;;;15.90;99.90;;;;;;4960190;28;20180;-90
2024/03/14 12:37:29;;;;;;;7.10;5.75;;;16.10;99.90;;;;;;4976867;28;20204;-86
2024/03/14 12:39:55;;;;;;;6.90;5.47;;;16.40;99.90;;;;;;4977760;28;20623;-92
2024/03/14 12:42:21;;;;;;;6.25;5.57;;;16.50;99.90;;;;;;4977490;28;20181;-88
2024/03/14 12:44:47;;;;;;;8.70;5.82;;;16.70;99.90;;;;;;4976395;28;20185;-88
2024/03/14 12:47:23;;;;;;;6.93;6.10;;;16.60;99.90;;;;;;4977411;28;20184;-89
2024/03/14 12:49:49;;;;;;;6.80;6.03;;;16.70;99.90;;;;;;4976568;28;20223;-92
2024/03/14 12:52:14;;;;;;;7.00;6.10;;;16.90;99.90;;;;;;4978067;28;20173;-92
2024/03/14 12:54:40;;;;;;;6.70;5.80;;;16.90;99.90;;;;;;4960320;28;20191;-88
2024/03/14 12:57:10;;;;;;;10.13;6.70;;;16.80;99.90;;;;;;4956908;29;20213;-90
2024/03/14 12:59:37;;;;;;;7.13;6.13;;;16.60;99.90;;;;;;4976741;28;20187;-91
2024/03/14 13:02:05;;;;;;;7.25;6.25;;;16.40;99.90;;;;;;4977575;28;20259;-89
2024/03/14 13:04:42;;;;;;;8.60;7.05;;;16.40;99.90;;;;;;4976699;28;20177;-93
2024/03/14 13:07:18;;;;;;;7.13;6.00;;;16.50;99.90;;;;;;4957392;28;20192;-89